sensor_id;sensor_type;location;lat;lon;timestamp;pressure;altitude;pressure_sealevel;temperature;humidity
9672;BME280;4874;43.568;27.824;2022-10-22T00:01:41;99860.25;;;9.74;100.00
9672;BME280;4874;43.568;27.824;2022-10-22T00:04:07;99859.19;;;9.77;100.00
9672;BME280;4874;43.568;27.824;2022-10-22T00:06:34;99859.44;;;9.85;100.00
9672;BME280;4874;43.568;27.824;2022-10-22T00:09:01;99858.09;;;9.44;100.00
9672;BME280;4874;43.568;27.824;2022-10-22T00:11:27;99852.00;;;9.55;100.00
9672;BME280;4874;43.568;27.824;2022-10-22T00:13:54;99852.97;;;9.54;100.00
9672;BME280;4874;43.568;27.824;2022-10-22T00:16:21;99829.69;;;9.46;100.00
9672;BME280;4874;43.568;27.824;2022-10-22T00:18:48;99830.03;;;9.42;100.00
9672;BME280;4874;43.568;27.824;2022-10-22T00:21:14;99845.38;;;9.61;100.00
9672;BME280;4874;43.568;27.824;2022-10-22T00:23:42;99836.47;;;9.62;100.00
9672;BME280;4874;43.568;27.824;2022-10-22T00:26:09;99830.59;;;9.69;100.00
9672;BME280;4874;43.568;27.824;2022-10-22T00:28:37;99829.97;;;9.55;100.00
9672;BME280;4874;43.568;27.824;2022-10-22T00:31:04;99828.94;;;9.44;100.00
9672;BME280;4874;43.568;27.824;2022-10-22T00:33:31;99822.16;;;9.64;100.00
9672;BME280;4874;43.568;27.824;2022-10-22T00:35:58;99822.75;;;9.68;100.00
9672;BME280;4874;43.568;27.824;2022-10-22T00:38:25;99819.13;;;9.69;100.00
9672;BME280;4874;43.568;27.824;2022-10-22T00:40:51;99756.28;;;9.36;100.00
9672;BME280;4874;43.568;27.824;2022-10-22T00:43:19;99810.00;;;9.73;100.00
9672;BME280;4874;43.568;27.824;2022-10-22T00:45:46;99795.16;;;9.81;100.00
9672;BME280;4874;43.568;27.824;2022-10-22T00:48:19;99805.53;;;9.73;100.00
9672;BME280;4874;43.568;27.824;2022-10-22T00:50:53;99788.31;;;9.79;100.00
9672;BME280;4874;43.568;27.824;2022-10-22T00:53:27;99797.25;;;9.89;100.00
9672;BME280;4874;43.568;27.824;2022-10-22T00:55:55;99781.91;;;9.81;100.00
9672;BME280;4874;43.568;27.824;2022-10-22T00:58:23;99796.75;;;9.84;100.00
9672;BME280;4874;43.568;27.824;2022-10-22T01:00:51;99788.53;;;9.98;100.00
9672;BME280;4874;43.568;27.824;2022-10-22T01:03:18;99791.19;;;9.98;100.00
9672;BME280;4874;43.568;27.824;2022-10-22T01:05:56;99788.31;;;10.01;100.00
9672;BME280;4874;43.568;27.824;2022-10-22T01:08:45;99790.97;;;10.01;100.00
9672;BME280;4874;43.568;27.824;2022-10-22T01:11:24;99793.50;;;10.02;100.00
9672;BME280;4874;43.568;27.824;2022-10-22T01:22:18;99770.13;;;9.85;100.00
9672;BME280;4874;43.568;27.824;2022-10-22T01:31:11;99768.28;;;9.86;100.00
9672;BME280;4874;43.568;27.824;2022-10-22T01:33:39;99765.91;;;9.94;100.00
9672;BME280;4874;43.568;27.824;2022-10-22T01:36:06;99763.84;;;9.97;100.00
9672;BME280;4874;43.568;27.824;2022-10-22T01:38:33;99758.06;;;9.92;100.00
9672;BME280;4874;43.568;27.824;2022-10-22T01:41:00;99761.19;;;9.97;100.00
9672;BME280;4874;43.568;27.824;2022-10-22T01:43:27;99766.34;;;9.88;100.00
9672;BME280;4874;43.568;27.824;2022-10-22T01:45:57;99735.97;;;9.81;100.00
9672;BME280;4874;43.568;27.824;2022-10-22T01:48:35;99760.09;;;9.89;100.00
9672;BME280;4874;43.568;27.824;2022-10-22T01:53:59;99743.81;;;9.71;100.00
9672;BME280;4874;43.568;27.824;2022-10-22T01:59:56;99758.28;;;9.89;100.00
9672;BME280;4874;43.568;27.824;2022-10-22T02:02:15;99760.94;;;9.89;100.00
9672;BME280;4874;43.568;27.824;2022-10-22T02:04:48;99753.34;;;9.74;100.00
9672;BME280;4874;43.568;27.824;2022-10-22T02:07:19;99757.19;;;9.81;100.00
9672;BME280;4874;43.568;27.824;2022-10-22T02:09:48;99728.88;;;9.59;100.00
9672;BME280;4874;43.568;27.824;2022-10-22T02:12:17;99756.00;;;9.63;100.00
9672;BME280;4874;43.568;27.824;2022-10-22T02:14:47;99744.78;;;9.59;100.00
9672;BME280;4874;43.568;27.824;2022-10-22T02:17:19;99748.78;;;9.65;100.00
9672;BME280;4874;43.568;27.824;2022-10-22T02:19:52;99751.63;;;9.50;100.00
9672;BME280;4874;43.568;27.824;2022-10-22T02:22:20;99755.22;;;9.49;100.00
9672;BME280;4874;43.568;27.824;2022-10-22T02:24:48;99745.25;;;9.53;100.00
9672;BME280;4874;43.568;27.824;2022-10-22T02:27:22;99752.22;;;9.43;100.00
9672;BME280;4874;43.568;27.824;2022-10-22T02:30:07;99754.13;;;9.30;100.00
9672;BME280;4874;43.568;27.824;2022-10-22T02:33:01;99755.59;;;9.45;100.00
9672;BME280;4874;43.568;27.824;2022-10-22T02:35:32;99752.59;;;9.49;100.00
9672;BME280;4874;43.568;27.824;2022-10-22T02:38:00;99744.84;;;9.24;100.00
9672;BME280;4874;43.568;27.824;2022-10-22T02:40:29;99723.41;;;9.16;100.00
9672;BME280;4874;43.568;27.824;2022-10-22T02:42:56;99736.56;;;9.29;100.00
9672;BME280;4874;43.568;27.824;2022-10-22T02:45:23;99733.25;;;9.14;100.00
9672;BME280;4874;43.568;27.824;2022-10-22T02:47:50;99741.00;;;9.28;100.00
9672;BME280;4874;43.568;27.824;2022-10-22T02:50:17;99703.06;;;9.17;100.00
9672;BME280;4874;43.568;27.824;2022-10-22T02:52:44;99745.13;;;9.43;100.00
9672;BME280;4874;43.568;27.824;2022-10-22T02:55:10;99745.59;;;9.48;100.00
9672;BME280;4874;43.568;27.824;2022-10-22T02:57:37;99738.16;;;9.42;100.00
9672;BME280;4874;43.568;27.824;2022-10-22T03:00:05;99742.56;;;9.31;100.00
9672;BME280;4874;43.568;27.824;2022-10-22T03:02:32;99742.06;;;9.26;100.00
9672;BME280;4874;43.568;27.824;2022-10-22T03:04:59;99734.16;;;9.37;100.00
9672;BME280;4874;43.568;27.824;2022-10-22T03:07:25;99739.69;;;9.34;100.00
9672;BME280;4874;43.568;27.824;2022-10-22T03:09:52;99739.56;;;9.35;100.00
9672;BME280;4874;43.568;27.824;2022-10-22T03:12:19;99739.56;;;9.35;100.00
9672;BME280;4874;43.568;27.824;2022-10-22T03:14:45;99726.66;;;9.31;100.00
9672;BME280;4874;43.568;27.824;2022-10-22T03:17:12;99724.00;;;9.31;100.00
9672;BME280;4874;43.568;27.824;2022-10-22T03:19:39;99723.19;;;9.30;100.00
9672;BME280;4874;43.568;27.824;2022-10-22T03:22:11;99728.50;;;8.96;100.00
9672;BME280;4874;43.568;27.824;2022-10-22T03:24:44;99731.13;;;8.85;100.00
9672;BME280;4874;43.568;27.824;2022-10-22T03:27:13;99736.91;;;8.90;100.00
9672;BME280;4874;43.568;27.824;2022-10-22T03:29:41;99731.59;;;9.13;100.00
9672;BME280;4874;43.568;27.824;2022-10-22T03:32:08;99737.97;;;9.22;100.00
9672;BME280;4874;43.568;27.824;2022-10-22T03:34:35;99735.22;;;9.23;100.00
9672;BME280;4874;43.568;27.824;2022-10-22T03:37:02;99731.34;;;9.16;100.00
9672;BME280;4874;43.568;27.824;2022-10-22T03:39:31;99734.44;;;9.10;100.00
9672;BME280;4874;43.568;27.824;2022-10-22T03:41:59;99728.34;;;9.21;100.00
9672;BME280;4874;43.568;27.824;2022-10-22T03:44:26;99730.19;;;8.97;100.00
9672;BME280;4874;43.568;27.824;2022-10-22T03:46:53;99708.03;;;8.87;100.00
9672;BME280;4874;43.568;27.824;2022-10-22T03:49:22;99729.69;;;9.26;100.00
9672;BME280;4874;43.568;27.824;2022-10-22T03:51:49;99727.00;;;9.15;100.00
9672;BME280;4874;43.568;27.824;2022-10-22T03:54:15;99670.19;;;8.74;100.00
9672;BME280;4874;43.568;27.824;2022-10-22T03:56:42;99715.53;;;9.04;100.00
9672;BME280;4874;43.568;27.824;2022-10-22T03:59:09;99711.81;;;9.06;100.00
9672;BME280;4874;43.568;27.824;2022-10-22T04:01:36;99709.78;;;9.10;100.00
9672;BME280;4874;43.568;27.824;2022-10-22T04:04:02;99702.16;;;9.05;100.00
9672;BME280;4874;43.568;27.824;2022-10-22T04:06:29;99706.16;;;9.11;100.00
9672;BME280;4874;43.568;27.824;2022-10-22T04:08:56;99698.59;;;9.17;100.00
9672;BME280;4874;43.568;27.824;2022-10-22T04:11:22;99671.13;;;8.96;100.00
9672;BME280;4874;43.568;27.824;2022-10-22T04:13:49;99711.94;;;9.16;100.00
9672;BME280;4874;43.568;27.824;2022-10-22T04:16:18;99714.84;;;9.24;100.00
9672;BME280;4874;43.568;27.824;2022-10-22T04:18:46;99700.13;;;9.09;100.00
9672;BME280;4874;43.568;27.824;2022-10-22T04:21:15;99701.06;;;8.97;100.00
9672;BME280;4874;43.568;27.824;2022-10-22T04:23:46;99655.44;;;8.82;100.00
9672;BME280;4874;43.568;27.824;2022-10-22T04:26:14;99694.00;;;9.08;100.00
9672;BME280;4874;43.568;27.824;2022-10-22T04:28:41;99694.25;;;9.16;100.00
9672;BME280;4874;43.568;27.824;2022-10-22T04:31:13;99688.47;;;9.22;100.00
9672;BME280;4874;43.568;27.824;2022-10-22T04:33:40;99691.84;;;9.13;100.00
9672;BME280;4874;43.568;27.824;2022-10-22T04:36:08;99680.31;;;9.25;100.00
9672;BME280;4874;43.568;27.824;2022-10-22T04:38:35;99681.00;;;9.16;100.00
9672;BME280;4874;43.568;27.824;2022-10-22T04:41:13;99674.03;;;9.26;100.00
9672;BME280;4874;43.568;27.824;2022-10-22T04:43:41;99673.34;;;9.35;100.00
9672;BME280;4874;43.568;27.824;2022-10-22T04:46:09;99671.91;;;9.42;100.00
9672;BME280;4874;43.568;27.824;2022-10-22T04:48:37;99657.19;;;9.38;100.00
9672;BME280;4874;43.568;27.824;2022-10-22T04:51:06;99666.94;;;9.49;100.00
9672;BME280;4874;43.568;27.824;2022-10-22T04:53:34;99670.91;;;9.43;100.00
9672;BME280;4874;43.568;27.824;2022-10-22T04:56:14;99667.91;;;9.59;100.00
9672;BME280;4874;43.568;27.824;2022-10-22T04:58:48;99646.56;;;9.83;100.00
9672;BME280;4874;43.568;27.824;2022-10-22T05:01:21;99669.88;;;10.33;100.00
9672;BME280;4874;43.568;27.824;2022-10-22T05:03:49;99673.72;;;10.40;100.00
9672;BME280;4874;43.568;27.824;2022-10-22T05:06:17;99667.13;;;10.55;100.00
9672;BME280;4874;43.568;27.824;2022-10-22T05:08:46;99645.09;;;10.43;100.00
9672;BME280;4874;43.568;27.824;2022-10-22T05:11:15;99678.72;;;10.54;100.00
9672;BME280;4874;43.568;27.824;2022-10-22T05:13:43;99677.50;;;10.79;100.00
9672;BME280;4874;43.568;27.824;2022-10-22T05:16:11;99697.53;;;10.83;100.00
9672;BME280;4874;43.568;27.824;2022-10-22T05:18:41;99677.81;;;11.26;100.00
9672;BME280;4874;43.568;27.824;2022-10-22T05:21:16;99668.31;;;11.03;100.00
9672;BME280;4874;43.568;27.824;2022-10-22T05:23:44;99627.00;;;10.69;100.00
9672;BME280;4874;43.568;27.824;2022-10-22T05:26:13;99652.66;;;10.80;100.00
9672;BME280;4874;43.568;27.824;2022-10-22T05:28:40;99674.59;;;10.82;100.00
9672;BME280;4874;43.568;27.824;2022-10-22T05:31:09;99662.47;;;10.68;100.00
9672;BME280;4874;43.568;27.824;2022-10-22T05:33:37;99663.59;;;10.65;100.00
9672;BME280;4874;43.568;27.824;2022-10-22T05:36:05;99667.84;;;10.57;100.00
9672;BME280;4874;43.568;27.824;2022-10-22T05:38:33;99668.13;;;10.75;100.00
9672;BME280;4874;43.568;27.824;2022-10-22T05:41:12;99660.63;;;10.80;100.00
9672;BME280;4874;43.568;27.824;2022-10-22T05:43:39;99669.41;;;10.80;100.00
9672;BME280;4874;43.568;27.824;2022-10-22T05:46:08;99655.19;;;10.81;100.00
9672;BME280;4874;43.568;27.824;2022-10-22T05:48:35;99654.28;;;10.92;100.00
9672;BME280;4874;43.568;27.824;2022-10-22T05:51:04;99670.59;;;11.08;100.00
9672;BME280;4874;43.568;27.824;2022-10-22T05:53:32;99666.00;;;11.10;100.00
9672;BME280;4874;43.568;27.824;2022-10-22T05:56:00;99666.56;;;11.13;100.00
9672;BME280;4874;43.568;27.824;2022-10-22T05:58:27;99686.00;;;11.34;100.00
9672;BME280;4874;43.568;27.824;2022-10-22T06:00:54;99685.13;;;11.54;100.00
9672;BME280;4874;43.568;27.824;2022-10-22T06:03:20;99662.94;;;11.65;100.00
9672;BME280;4874;43.568;27.824;2022-10-22T06:05:47;99666.78;;;11.51;100.00
9672;BME280;4874;43.568;27.824;2022-10-22T06:08:13;99636.28;;;11.55;100.00
9672;BME280;4874;43.568;27.824;2022-10-22T06:10:43;99690.28;;;12.16;100.00
9672;BME280;4874;43.568;27.824;2022-10-22T06:13:10;99701.78;;;12.26;100.00
9672;BME280;4874;43.568;27.824;2022-10-22T06:15:36;99666.91;;;12.39;100.00
9672;BME280;4874;43.568;27.824;2022-10-22T06:18:03;99694.69;;;12.55;100.00
9672;BME280;4874;43.568;27.824;2022-10-22T06:20:29;99682.63;;;12.61;100.00
9672;BME280;4874;43.568;27.824;2022-10-22T06:22:56;99674.78;;;12.78;100.00
9672;BME280;4874;43.568;27.824;2022-10-22T06:25:23;99670.84;;;12.63;100.00
9672;BME280;4874;43.568;27.824;2022-10-22T06:27:50;99670.03;;;12.82;100.00
9672;BME280;4874;43.568;27.824;2022-10-22T06:30:19;99653.31;;;12.70;100.00
9672;BME280;4874;43.568;27.824;2022-10-22T06:32:46;99673.94;;;12.97;100.00
9672;BME280;4874;43.568;27.824;2022-10-22T06:35:12;99665.78;;;13.08;100.00
9672;BME280;4874;43.568;27.824;2022-10-22T06:37:39;99661.03;;;13.02;100.00
9672;BME280;4874;43.568;27.824;2022-10-22T06:40:06;99666.34;;;13.21;100.00
9672;BME280;4874;43.568;27.824;2022-10-22T06:42:33;99642.78;;;13.07;100.00
9672;BME280;4874;43.568;27.824;2022-10-22T06:45:00;99661.22;;;13.37;100.00
9672;BME280;4874;43.568;27.824;2022-10-22T06:47:27;99652.25;;;13.38;100.00
9672;BME280;4874;43.568;27.824;2022-10-22T06:49:56;99652.44;;;13.64;100.00
9672;BME280;4874;43.568;27.824;2022-10-22T06:52:23;99644.09;;;13.76;100.00
9672;BME280;4874;43.568;27.824;2022-10-22T06:54:50;99656.69;;;13.84;100.00
9672;BME280;4874;43.568;27.824;2022-10-22T06:57:16;99656.34;;;14.24;100.00
9672;BME280;4874;43.568;27.824;2022-10-22T06:59:43;99649.44;;;14.03;100.00
9672;BME280;4874;43.568;27.824;2022-10-22T07:02:11;99652.22;;;13.84;100.00
9672;BME280;4874;43.568;27.824;2022-10-22T07:04:37;99654.50;;;13.97;100.00
9672;BME280;4874;43.568;27.824;2022-10-22T07:07:04;99660.47;;;13.91;100.00
9672;BME280;4874;43.568;27.824;2022-10-22T07:09:31;99655.47;;;14.23;100.00
9672;BME280;4874;43.568;27.824;2022-10-22T07:11:57;99653.84;;;14.12;100.00
9672;BME280;4874;43.568;27.824;2022-10-22T07:14:24;99648.81;;;14.09;100.00
9672;BME280;4874;43.568;27.824;2022-10-22T07:16:51;99660.28;;;14.19;100.00
9672;BME280;4874;43.568;27.824;2022-10-22T07:19:17;99653.31;;;14.09;100.00
9672;BME280;4874;43.568;27.824;2022-10-22T07:21:44;99645.78;;;14.04;100.00
9672;BME280;4874;43.568;27.824;2022-10-22T07:24:10;99647.44;;;14.50;100.00
9672;BME280;4874;43.568;27.824;2022-10-22T07:26:37;99652.56;;;14.44;100.00
9672;BME280;4874;43.568;27.824;2022-10-22T07:29:04;99643.56;;;14.45;100.00
9672;BME280;4874;43.568;27.824;2022-10-22T07:31:31;99647.59;;;14.49;100.00
9672;BME280;4874;43.568;27.824;2022-10-22T07:33:57;99653.84;;;14.57;100.00
9672;BME280;4874;43.568;27.824;2022-10-22T07:36:24;99651.19;;;14.40;100.00
9672;BME280;4874;43.568;27.824;2022-10-22T07:38:55;99642.34;;;14.57;100.00
9672;BME280;4874;43.568;27.824;2022-10-22T07:41:23;99653.09;;;14.82;100.00
9672;BME280;4874;43.568;27.824;2022-10-22T07:43:50;99652.50;;;15.14;100.00
9672;BME280;4874;43.568;27.824;2022-10-22T07:46:17;99645.84;;;15.18;100.00
9672;BME280;4874;43.568;27.824;2022-10-22T07:48:44;99633.63;;;15.15;100.00
9672;BME280;4874;43.568;27.824;2022-10-22T07:51:11;99643.19;;;15.18;100.00
9672;BME280;4874;43.568;27.824;2022-10-22T07:53:38;99644.97;;;15.09;100.00
9672;BME280;4874;43.568;27.824;2022-10-22T07:56:06;99644.28;;;14.90;100.00
9672;BME280;4874;43.568;27.824;2022-10-22T07:58:33;99641.44;;;15.09;100.00
9672;BME280;4874;43.568;27.824;2022-10-22T08:01:00;99627.84;;;15.28;100.00
9672;BME280;4874;43.568;27.824;2022-10-22T08:03:28;99631.06;;;15.57;100.00
9672;BME280;4874;43.568;27.824;2022-10-22T08:05:54;99612.59;;;15.46;100.00
9672;BME280;4874;43.568;27.824;2022-10-22T08:08:21;99631.25;;;15.64;100.00
9672;BME280;4874;43.568;27.824;2022-10-22T08:10:51;99633.75;;;15.57;100.00
9672;BME280;4874;43.568;27.824;2022-10-22T08:13:18;99616.47;;;15.85;100.00
9672;BME280;4874;43.568;27.824;2022-10-22T08:15:45;99593.53;;;15.91;100.00
9672;BME280;4874;43.568;27.824;2022-10-22T08:18:12;99621.31;;;15.82;100.00
9672;BME280;4874;43.568;27.824;2022-10-22T08:20:39;99608.88;;;15.65;100.00
9672;BME280;4874;43.568;27.824;2022-10-22T08:23:07;99613.47;;;15.88;100.00
9672;BME280;4874;43.568;27.824;2022-10-22T08:25:34;99616.66;;;15.92;100.00
9672;BME280;4874;43.568;27.824;2022-10-22T08:28:00;99612.19;;;16.08;100.00
9672;BME280;4874;43.568;27.824;2022-10-22T08:30:27;99611.22;;;16.17;100.00
9672;BME280;4874;43.568;27.824;2022-10-22T08:32:55;99593.25;;;16.02;100.00
9672;BME280;4874;43.568;27.824;2022-10-22T08:35:22;99614.22;;;16.14;100.00
9672;BME280;4874;43.568;27.824;2022-10-22T08:37:48;99615.00;;;15.99;100.00
9672;BME280;4874;43.568;27.824;2022-10-22T08:40:25;99610.75;;;16.30;100.00
9672;BME280;4874;43.568;27.824;2022-10-22T08:45:31;99617.25;;;16.27;100.00
9672;BME280;4874;43.568;27.824;2022-10-22T08:50:47;99596.78;;;16.02;100.00
9672;BME280;4874;43.568;27.824;2022-10-22T08:53:18;99617.28;;;16.43;100.00
9672;BME280;4874;43.568;27.824;2022-10-22T08:55:48;99624.84;;;16.56;100.00
9672;BME280;4874;43.568;27.824;2022-10-22T08:58:35;99576.03;;;16.20;100.00
9672;BME280;4874;43.568;27.824;2022-10-22T09:01:20;99612.81;;;16.60;100.00
9672;BME280;4874;43.568;27.824;2022-10-22T09:06:27;99599.25;;;16.78;100.00
9672;BME280;4874;43.568;27.824;2022-10-22T09:08:56;99609.44;;;16.66;100.00
9672;BME280;4874;43.568;27.824;2022-10-22T09:11:50;99609.81;;;16.79;100.00
9672;BME280;4874;43.568;27.824;2022-10-22T09:14:24;99601.41;;;16.98;100.00
9672;BME280;4874;43.568;27.824;2022-10-22T09:19:34;99590.34;;;16.61;98.75
9672;BME280;4874;43.568;27.824;2022-10-22T09:22:33;99579.28;;;16.56;98.11
9672;BME280;4874;43.568;27.824;2022-10-22T09:25:40;99581.78;;;16.58;98.96
9672;BME280;4874;43.568;27.824;2022-10-22T09:28:08;99587.81;;;16.84;97.76
9672;BME280;4874;43.568;27.824;2022-10-22T09:30:36;99602.91;;;16.93;99.84
9672;BME280;4874;43.568;27.824;2022-10-22T09:33:14;99592.69;;;16.96;98.79
9672;BME280;4874;43.568;27.824;2022-10-22T09:35:53;99600.25;;;16.85;98.30
9672;BME280;4874;43.568;27.824;2022-10-22T09:38:25;99600.06;;;16.94;99.56
9672;BME280;4874;43.568;27.824;2022-10-22T09:40:56;99598.50;;;17.16;96.71
9672;BME280;4874;43.568;27.824;2022-10-22T09:43:23;99591.84;;;16.96;95.38
9672;BME280;4874;43.568;27.824;2022-10-22T09:46:00;99584.47;;;16.98;93.96
9672;BME280;4874;43.568;27.824;2022-10-22T09:48:30;99591.34;;;17.08;93.58
9672;BME280;4874;43.568;27.824;2022-10-22T09:51:19;99588.78;;;17.15;91.56
9672;BME280;4874;43.568;27.824;2022-10-22T09:53:58;99588.81;;;17.07;92.20
9672;BME280;4874;43.568;27.824;2022-10-22T09:58:51;99579.44;;;17.03;90.03
9672;BME280;4874;43.568;27.824;2022-10-22T10:01:22;99573.53;;;17.07;91.07
9672;BME280;4874;43.568;27.824;2022-10-22T10:03:49;99557.66;;;16.82;90.39
9672;BME280;4874;43.568;27.824;2022-10-22T10:06:18;99576.22;;;17.15;86.42
9672;BME280;4874;43.568;27.824;2022-10-22T10:08:46;99569.38;;;17.05;86.85
9672;BME280;4874;43.568;27.824;2022-10-22T10:11:27;99547.38;;;17.09;87.54
9672;BME280;4874;43.568;27.824;2022-10-22T10:16:57;99541.81;;;17.27;87.38
9672;BME280;4874;43.568;27.824;2022-10-22T10:25:15;99522.59;;;17.54;83.08
9672;BME280;4874;43.568;27.824;2022-10-22T10:30:23;99508.94;;;17.72;83.38
9672;BME280;4874;43.568;27.824;2022-10-22T10:39:23;99481.19;;;18.02;78.90
9672;BME280;4874;43.568;27.824;2022-10-22T10:49:42;99444.19;;;17.89;75.54
9672;BME280;4874;43.568;27.824;2022-10-22T10:55:20;99462.25;;;18.18;73.64
9672;BME280;4874;43.568;27.824;2022-10-22T11:00:17;99454.75;;;18.13;73.69
9672;BME280;4874;43.568;27.824;2022-10-22T11:07:55;99431.50;;;18.20;76.05
9672;BME280;4874;43.568;27.824;2022-10-22T11:10:31;99442.44;;;18.41;75.65
9672;BME280;4874;43.568;27.824;2022-10-22T11:18:41;99437.81;;;18.50;76.88
9672;BME280;4874;43.568;27.824;2022-10-22T11:21:17;99433.84;;;18.46;75.84
9672;BME280;4874;43.568;27.824;2022-10-22T11:23:54;99399.88;;;18.45;78.83
9672;BME280;4874;43.568;27.824;2022-10-22T11:29:12;99370.59;;;18.50;76.10
9672;BME280;4874;43.568;27.824;2022-10-22T11:31:41;99416.06;;;18.89;74.89
9672;BME280;4874;43.568;27.824;2022-10-22T11:34:20;99404.09;;;19.27;73.79
9672;BME280;4874;43.568;27.824;2022-10-22T11:36:59;99401.16;;;19.36;67.95
9672;BME280;4874;43.568;27.824;2022-10-22T11:42:09;99377.66;;;19.30;67.41
9672;BME280;4874;43.568;27.824;2022-10-22T11:47:33;99407.47;;;19.43;67.39
9672;BME280;4874;43.568;27.824;2022-10-22T11:53:01;99407.56;;;19.21;69.29
9672;BME280;4874;43.568;27.824;2022-10-22T12:03:43;99407.53;;;19.50;68.35
9672;BME280;4874;43.568;27.824;2022-10-22T12:09:05;99401.53;;;19.33;68.64
9672;BME280;4874;43.568;27.824;2022-10-22T12:11:38;99394.28;;;19.19;67.20
9672;BME280;4874;43.568;27.824;2022-10-22T12:14:51;99387.13;;;19.41;66.79
9672;BME280;4874;43.568;27.824;2022-10-22T12:17:20;99387.50;;;19.38;67.56
9672;BME280;4874;43.568;27.824;2022-10-22T12:22:30;99382.94;;;19.24;68.74
9672;BME280;4874;43.568;27.824;2022-10-22T12:25:09;99384.72;;;19.17;67.71
9672;BME280;4874;43.568;27.824;2022-10-22T12:27:41;99394.66;;;19.31;67.76
9672;BME280;4874;43.568;27.824;2022-10-22T12:32:54;99385.31;;;19.12;67.96
9672;BME280;4874;43.568;27.824;2022-10-22T12:35:28;99376.88;;;19.01;68.13
9672;BME280;4874;43.568;27.824;2022-10-22T12:37:57;99385.38;;;19.19;68.83
9672;BME280;4874;43.568;27.824;2022-10-22T12:40:26;99378.16;;;19.19;68.03
9672;BME280;4874;43.568;27.824;2022-10-22T12:42:56;99361.16;;;19.19;67.43
9672;BME280;4874;43.568;27.824;2022-10-22T12:45:32;99358.97;;;19.08;69.05
9672;BME280;4874;43.568;27.824;2022-10-22T12:48:02;99362.78;;;18.99;68.67
9672;BME280;4874;43.568;27.824;2022-10-22T12:50:35;99362.28;;;19.10;70.15
9672;BME280;4874;43.568;27.824;2022-10-22T12:53:12;99359.41;;;19.11;70.32
9672;BME280;4874;43.568;27.824;2022-10-22T12:55:40;99352.66;;;19.01;70.54
9672;BME280;4874;43.568;27.824;2022-10-22T12:58:07;99361.38;;;19.03;70.73
9672;BME280;4874;43.568;27.824;2022-10-22T13:00:38;99370.81;;;19.13;70.02
9672;BME280;4874;43.568;27.824;2022-10-22T13:03:06;99365.16;;;19.08;69.94
9672;BME280;4874;43.568;27.824;2022-10-22T13:05:34;99338.09;;;18.95;69.99
9672;BME280;4874;43.568;27.824;2022-10-22T13:08:08;99361.53;;;19.16;70.46
9672;BME280;4874;43.568;27.824;2022-10-22T13:10:40;99365.63;;;19.12;70.00
9672;BME280;4874;43.568;27.824;2022-10-22T13:16:18;99354.41;;;19.08;72.40
9672;BME280;4874;43.568;27.824;2022-10-22T13:18:46;99351.28;;;19.26;70.32
9672;BME280;4874;43.568;27.824;2022-10-22T13:21:35;99319.34;;;19.02;70.64
9672;BME280;4874;43.568;27.824;2022-10-22T13:24:23;99324.97;;;19.07;71.20
9672;BME280;4874;43.568;27.824;2022-10-22T13:26:52;99335.81;;;19.13;72.92
9672;BME280;4874;43.568;27.824;2022-10-22T13:29:20;99333.84;;;19.01;71.67
9672;BME280;4874;43.568;27.824;2022-10-22T13:31:50;99329.38;;;18.93;71.35
9672;BME280;4874;43.568;27.824;2022-10-22T13:34:20;99325.56;;;18.88;72.89
9672;BME280;4874;43.568;27.824;2022-10-22T13:36:48;99308.31;;;18.82;73.11
9672;BME280;4874;43.568;27.824;2022-10-22T13:39:18;99313.81;;;18.89;71.50
9672;BME280;4874;43.568;27.824;2022-10-22T13:41:46;99310.59;;;18.79;72.75
9672;BME280;4874;43.568;27.824;2022-10-22T13:44:16;99300.91;;;18.84;72.30
9672;BME280;4874;43.568;27.824;2022-10-22T13:46:45;99313.16;;;18.87;72.95
9672;BME280;4874;43.568;27.824;2022-10-22T13:49:17;99308.91;;;18.77;74.54
9672;BME280;4874;43.568;27.824;2022-10-22T13:51:45;99313.16;;;18.87;74.97
9672;BME280;4874;43.568;27.824;2022-10-22T13:54:17;99298.19;;;18.63;74.23
9672;BME280;4874;43.568;27.824;2022-10-22T13:56:45;99317.63;;;18.80;74.48
9672;BME280;4874;43.568;27.824;2022-10-22T13:59:12;99310.94;;;18.75;73.58
9672;BME280;4874;43.568;27.824;2022-10-22T14:01:39;99286.38;;;18.49;73.51
9672;BME280;4874;43.568;27.824;2022-10-22T14:04:07;99313.28;;;18.64;72.98
9672;BME280;4874;43.568;27.824;2022-10-22T14:06:37;99323.38;;;18.62;72.58
9672;BME280;4874;43.568;27.824;2022-10-22T14:09:10;99314.03;;;18.58;73.36
9672;BME280;4874;43.568;27.824;2022-10-22T14:11:38;99306.78;;;18.58;73.79
9672;BME280;4874;43.568;27.824;2022-10-22T14:14:05;99307.75;;;18.51;75.55
9672;BME280;4874;43.568;27.824;2022-10-22T14:16:36;99309.09;;;18.61;74.97
9672;BME280;4874;43.568;27.824;2022-10-22T14:19:06;99312.94;;;18.52;74.77
9672;BME280;4874;43.568;27.824;2022-10-22T14:21:35;99316.63;;;18.51;73.32
9672;BME280;4874;43.568;27.824;2022-10-22T14:24:02;99321.34;;;18.49;74.15
9672;BME280;4874;43.568;27.824;2022-10-22T14:26:31;99317.09;;;18.40;75.30
9672;BME280;4874;43.568;27.824;2022-10-22T14:29:00;99310.25;;;18.52;73.81
9672;BME280;4874;43.568;27.824;2022-10-22T14:31:41;99305.88;;;18.51;73.75
9672;BME280;4874;43.568;27.824;2022-10-22T14:34:10;99306.34;;;18.40;75.37
9672;BME280;4874;43.568;27.824;2022-10-22T14:36:37;99308.34;;;18.38;74.63
9672;BME280;4874;43.568;27.824;2022-10-22T14:39:03;99302.97;;;18.38;76.04
9672;BME280;4874;43.568;27.824;2022-10-22T14:41:30;99304.63;;;18.39;76.22
9672;BME280;4874;43.568;27.824;2022-10-22T14:43:57;99302.03;;;18.31;76.72
9672;BME280;4874;43.568;27.824;2022-10-22T14:46:25;99275.06;;;18.10;77.50
9672;BME280;4874;43.568;27.824;2022-10-22T14:48:51;99267.56;;;18.06;78.98
9672;BME280;4874;43.568;27.824;2022-10-22T14:51:20;99278.16;;;18.22;78.70
9672;BME280;4874;43.568;27.824;2022-10-22T14:53:47;99282.41;;;18.16;77.46
9672;BME280;4874;43.568;27.824;2022-10-22T14:56:16;99264.88;;;18.06;79.22
9672;BME280;4874;43.568;27.824;2022-10-22T14:58:43;99276.47;;;18.06;78.32
9672;BME280;4874;43.568;27.824;2022-10-22T15:01:11;99263.69;;;18.08;78.79
9672;BME280;4874;43.568;27.824;2022-10-22T15:03:38;99271.44;;;18.03;79.30
9672;BME280;4874;43.568;27.824;2022-10-22T15:06:05;99265.63;;;18.00;79.17
9672;BME280;4874;43.568;27.824;2022-10-22T15:08:31;99275.25;;;17.57;98.98